RYR1067 LPPR-LEIB
Flight info
| Callsign | RYR1067 |
|---|---|
| Flight time | 1h 22m |
| Altitude | 32000 |
| Route | BELDU DCT ADORO L155 ZMR DCT PDT M871 NANDO T257 LASPO Z224 VARUT |
| Aircraft | B738/M-SDE2E3FGHIRWXY/LB1 |
Departure
| Time | 2026-05-07 10:53 |
|---|---|
| Airport | Francisco de Sá Carneiro Airport (LPPR) |
Arrival
| Time | 2026-05-07 12:15 |
|---|---|
| Airport | Ibiza Airport (LEIB) |
| Time | Latitude | Longitude | Altitude | Speed | Heading |
|---|---|---|---|---|---|
| 2026-05-07 10:25 | 41.23437 | -8.67268 | 236 ft | 0 kts | 59° |
| 2026-05-07 10:46 | 41.23427 | -8.67288 | 242 ft | 4 kts | 48° |
| 2026-05-07 10:46 | 41.23407 | -8.67309 | 239 ft | 4 kts | 15° |
| 2026-05-07 10:46 | 41.23383 | -8.67307 | 240 ft | 4 kts | 327° |
| 2026-05-07 10:47 | 41.23366 | -8.67283 | 239 ft | 3 kts | 292° |
| 2026-05-07 10:47 | 41.23365 | -8.67279 | 238 ft | 0 kts | 290° |
| 2026-05-07 10:49 | 41.23382 | -8.67332 | 237 ft | 14 kts | 300° |
| 2026-05-07 10:49 | 41.23475 | -8.67386 | 236 ft | 18 kts | 348° |
| 2026-05-07 10:49 | 41.23627 | -8.67426 | 240 ft | 26 kts | 349° |
| 2026-05-07 10:49 | 41.23819 | -8.67475 | 236 ft | 28 kts | 349° |
| 2026-05-07 10:50 | 41.24004 | -8.67522 | 236 ft | 26 kts | 348° |
| 2026-05-07 10:50 | 41.24177 | -8.67568 | 236 ft | 24 kts | 348° |
| 2026-05-07 10:50 | 41.24313 | -8.67704 | 226 ft | 26 kts | 332° |
| 2026-05-07 10:50 | 41.24499 | -8.67761 | 214 ft | 29 kts | 348° |
| 2026-05-07 10:51 | 41.24704 | -8.67813 | 213 ft | 31 kts | 349° |
| 2026-05-07 10:51 | 41.24918 | -8.67923 | 199 ft | 27 kts | 344° |
| 2026-05-07 10:51 | 41.25080 | -8.67968 | 182 ft | 23 kts | 348° |
| 2026-05-07 10:51 | 41.25240 | -8.68009 | 178 ft | 25 kts | 348° |
| 2026-05-07 10:52 | 41.25419 | -8.68057 | 171 ft | 26 kts | 350° |
| 2026-05-07 10:52 | 41.25598 | -8.68104 | 164 ft | 17 kts | 350° |
| 2026-05-07 10:52 | 41.25676 | -8.68210 | 165 ft | 19 kts | 263° |
| 2026-05-07 10:52 | 41.25599 | -8.68330 | 167 ft | 21 kts | 179° |
| 2026-05-07 10:53 | 41.25201 | -8.68229 | 178 ft | 100 kts | 169° |
| 2026-05-07 10:53 | 41.24262 | -8.67985 | 220 ft | 172 kts | 171° |
| 2026-05-07 10:53 | 41.22998 | -8.67645 | 940 ft | 188 kts | 169° |
| 2026-05-07 10:53 | 41.21723 | -8.67243 | 2102 ft | 190 kts | 165° |
| 2026-05-07 10:54 | 41.20345 | -8.66868 | 2730 ft | 214 kts | 168° |
| 2026-05-07 10:54 | 41.18800 | -8.66491 | 3006 ft | 238 kts | 168° |
| 2026-05-07 10:54 | 41.17150 | -8.66074 | 3618 ft | 242 kts | 168° |
| 2026-05-07 10:54 | 41.15502 | -8.65642 | 4279 ft | 249 kts | 167° |
| 2026-05-07 10:55 | 41.13748 | -8.65171 | 4719 ft | 267 kts | 167° |
| 2026-05-07 10:55 | 41.11893 | -8.64670 | 5448 ft | 275 kts | 166° |
| 2026-05-07 10:55 | 41.10154 | -8.63698 | 6467 ft | 273 kts | 142° |
| 2026-05-07 10:55 | 41.08908 | -8.61799 | 7264 ft | 277 kts | 114° |
| 2026-05-07 10:56 | 41.08463 | -8.59334 | 8128 ft | 278 kts | 88° |
| 2026-05-07 10:56 | 41.08722 | -8.56796 | 9006 ft | 280 kts | 76° |
| 2026-05-07 10:56 | 41.09176 | -8.54255 | 9855 ft | 286 kts | 74° |
| 2026-05-07 10:56 | 41.09679 | -8.51658 | 10404 ft | 301 kts | 74° |
| 2026-05-07 10:57 | 41.10220 | -8.48895 | 10591 ft | 326 kts | 74° |
| 2026-05-07 10:57 | 41.10795 | -8.45920 | 11094 ft | 340 kts | 74° |
| 2026-05-07 10:57 | 41.11377 | -8.42850 | 11840 ft | 345 kts | 75° |
| 2026-05-07 10:57 | 41.11957 | -8.39744 | 12665 ft | 349 kts | 75° |
| 2026-05-07 10:58 | 41.12538 | -8.36596 | 13435 ft | 354 kts | 75° |
| 2026-05-07 10:58 | 41.13124 | -8.33397 | 14127 ft | 359 kts | 75° |
| 2026-05-07 10:58 | 41.13712 | -8.30163 | 14838 ft | 363 kts | 76° |
| 2026-05-07 10:58 | 41.14306 | -8.26885 | 15559 ft | 367 kts | 76° |
| 2026-05-07 10:59 | 41.14903 | -8.23579 | 16262 ft | 371 kts | 76° |
| 2026-05-07 10:59 | 41.15497 | -8.20282 | 16926 ft | 375 kts | 76° |
| 2026-05-07 10:59 | 41.16106 | -8.16894 | 17621 ft | 380 kts | 76° |
| 2026-05-07 10:59 | 41.16720 | -8.13470 | 18267 ft | 384 kts | 76° |
| 2026-05-07 11:00 | 41.17341 | -8.10004 | 18854 ft | 388 kts | 76° |
| 2026-05-07 11:00 | 41.17965 | -8.06514 | 19459 ft | 391 kts | 76° |
| 2026-05-07 11:00 | 41.18596 | -8.02978 | 20068 ft | 394 kts | 76° |
| 2026-05-07 11:00 | 41.19229 | -7.99422 | 20647 ft | 398 kts | 76° |
| 2026-05-07 11:01 | 41.19867 | -7.95828 | 21221 ft | 402 kts | 76° |
| 2026-05-07 11:01 | 41.20510 | -7.92200 | 21796 ft | 405 kts | 76° |
| 2026-05-07 11:01 | 41.21150 | -7.88587 | 22352 ft | 409 kts | 76° |
| 2026-05-07 11:01 | 41.21802 | -7.84896 | 22882 ft | 412 kts | 76° |
| 2026-05-07 11:02 | 41.22458 | -7.81174 | 23419 ft | 416 kts | 76° |
| 2026-05-07 11:02 | 41.23120 | -7.77415 | 23885 ft | 419 kts | 76° |
| 2026-05-07 11:02 | 41.23784 | -7.73633 | 24336 ft | 422 kts | 76° |
| 2026-05-07 11:02 | 41.24452 | -7.69817 | 24781 ft | 425 kts | 76° |
| 2026-05-07 11:03 | 41.25124 | -7.65976 | 25222 ft | 428 kts | 76° |
| 2026-05-07 11:03 | 41.25799 | -7.62103 | 25643 ft | 432 kts | 76° |
| 2026-05-07 11:03 | 41.26479 | -7.58203 | 26056 ft | 435 kts | 76° |
| 2026-05-07 11:03 | 41.27152 | -7.54329 | 26477 ft | 438 kts | 76° |
| 2026-05-07 11:04 | 41.27838 | -7.50369 | 26883 ft | 441 kts | 76° |
| 2026-05-07 11:04 | 41.28528 | -7.46383 | 27286 ft | 444 kts | 76° |
| 2026-05-07 11:04 | 41.29219 | -7.42382 | 27786 ft | 444 kts | 76° |
| 2026-05-07 11:04 | 41.29906 | -7.38391 | 28347 ft | 442 kts | 76° |
| 2026-05-07 11:05 | 41.30588 | -7.34415 | 28904 ft | 441 kts | 76° |
| 2026-05-07 11:05 | 41.31270 | -7.30436 | 29411 ft | 441 kts | 76° |
| 2026-05-07 11:05 | 41.31950 | -7.26458 | 29885 ft | 441 kts | 76° |
| 2026-05-07 11:05 | 41.32629 | -7.22480 | 30317 ft | 441 kts | 76° |
| 2026-05-07 11:06 | 41.33305 | -7.18508 | 30746 ft | 440 kts | 76° |
| 2026-05-07 11:06 | 41.33979 | -7.14538 | 31173 ft | 439 kts | 76° |
| 2026-05-07 11:06 | 41.34651 | -7.10575 | 31606 ft | 438 kts | 76° |
| 2026-05-07 11:06 | 41.35321 | -7.06613 | 31906 ft | 440 kts | 76° |
| 2026-05-07 11:07 | 41.36676 | -6.98584 | 31906 ft | 455 kts | 76° |
| 2026-05-07 11:07 | 41.38077 | -6.90242 | 31911 ft | 468 kts | 76° |
| 2026-05-07 11:08 | 41.39501 | -6.81715 | 31895 ft | 473 kts | 76° |
| 2026-05-07 11:08 | 41.40920 | -6.73169 | 31897 ft | 473 kts | 76° |
| 2026-05-07 11:09 | 41.42096 | -6.66061 | 31900 ft | 472 kts | 76° |
| 2026-05-07 11:09 | 41.43725 | -6.56155 | 31893 ft | 470 kts | 76° |
| 2026-05-07 11:10 | 41.45115 | -6.47661 | 31898 ft | 468 kts | 76° |
| 2026-05-07 11:10 | 41.46490 | -6.39210 | 31898 ft | 466 kts | 76° |
| 2026-05-07 11:11 | 41.47510 | -6.32163 | 31880 ft | 468 kts | 85° |
| 2026-05-07 11:11 | 41.47473 | -6.27804 | 31915 ft | 474 kts | 96° |
| 2026-05-07 11:11 | 41.46441 | -6.22112 | 31898 ft | 481 kts | 113° |
| 2026-05-07 11:12 | 41.44123 | -6.15299 | 31909 ft | 482 kts | 116° |
| 2026-05-07 11:12 | 41.41236 | -6.07304 | 31898 ft | 482 kts | 116° |
| 2026-05-07 11:13 | 41.38361 | -5.99249 | 31907 ft | 481 kts | 116° |
| 2026-05-07 11:13 | 41.35529 | -5.91178 | 31904 ft | 481 kts | 116° |
| 2026-05-07 11:14 | 41.32713 | -5.83115 | 31909 ft | 480 kts | 116° |
| 2026-05-07 11:14 | 41.29918 | -5.75127 | 31904 ft | 480 kts | 116° |
| 2026-05-07 11:15 | 41.27094 | -5.67089 | 31909 ft | 479 kts | 116° |
| 2026-05-07 11:15 | 41.24269 | -5.59074 | 31903 ft | 479 kts | 116° |
| 2026-05-07 11:16 | 41.21440 | -5.51070 | 31907 ft | 479 kts | 116° |
| 2026-05-07 11:16 | 41.18606 | -5.43077 | 31914 ft | 478 kts | 116° |
| 2026-05-07 11:17 | 41.15785 | -5.35141 | 31911 ft | 479 kts | 116° |
| 2026-05-07 11:17 | 41.12941 | -5.27163 | 31913 ft | 479 kts | 116° |
| 2026-05-07 11:18 | 41.10087 | -5.19181 | 31904 ft | 479 kts | 117° |
| 2026-05-07 11:18 | 41.07225 | -5.11196 | 31910 ft | 479 kts | 117° |
| 2026-05-07 11:19 | 41.04378 | -5.03277 | 31910 ft | 480 kts | 117° |
| 2026-05-07 11:19 | 41.01503 | -4.95300 | 31913 ft | 480 kts | 117° |
| 2026-05-07 11:20 | 40.98621 | -4.87329 | 31911 ft | 480 kts | 117° |
| 2026-05-07 11:20 | 40.95733 | -4.79362 | 31913 ft | 480 kts | 117° |
| 2026-05-07 11:21 | 40.92861 | -4.71459 | 31914 ft | 480 kts | 117° |
| 2026-05-07 11:21 | 40.89961 | -4.63505 | 31921 ft | 480 kts | 117° |
| 2026-05-07 11:22 | 40.87057 | -4.55559 | 31917 ft | 480 kts | 117° |
| 2026-05-07 11:22 | 40.84148 | -4.47623 | 31921 ft | 480 kts | 118° |
| 2026-05-07 11:23 | 40.81234 | -4.39693 | 31924 ft | 480 kts | 118° |
| 2026-05-07 11:23 | 40.78335 | -4.31828 | 31928 ft | 479 kts | 118° |
| 2026-05-07 11:24 | 40.75415 | -4.23924 | 31928 ft | 479 kts | 118° |
| 2026-05-07 11:24 | 40.72492 | -4.16035 | 31949 ft | 479 kts | 118° |
| 2026-05-07 11:25 | 40.69564 | -4.08156 | 31954 ft | 478 kts | 118° |
| 2026-05-07 11:25 | 40.66652 | -4.00341 | 31959 ft | 478 kts | 118° |
| 2026-05-07 11:26 | 40.63717 | -3.92481 | 31965 ft | 478 kts | 118° |
| 2026-05-07 11:26 | 40.60775 | -3.84627 | 31964 ft | 478 kts | 119° |
| 2026-05-07 11:27 | 40.57860 | -3.76858 | 31968 ft | 461 kts | 119° |
| 2026-05-07 11:27 | 40.56461 | -3.73130 | 31958 ft | 450 kts | 119° |
| 2026-05-07 11:27 | 40.55088 | -3.69486 | 31939 ft | 451 kts | 120° |
| 2026-05-07 11:28 | 40.52283 | -3.62069 | 31937 ft | 455 kts | 120° |
| 2026-05-07 11:28 | 40.49452 | -3.54596 | 31949 ft | 458 kts | 120° |
| 2026-05-07 11:29 | 40.46604 | -3.47090 | 31930 ft | 460 kts | 120° |
| 2026-05-07 11:29 | 40.43764 | -3.39623 | 31941 ft | 460 kts | 120° |
| 2026-05-07 11:30 | 40.40902 | -3.32114 | 31938 ft | 460 kts | 120° |
| 2026-05-07 11:30 | 40.38041 | -3.24630 | 31934 ft | 458 kts | 121° |
| 2026-05-07 11:31 | 40.35186 | -3.17180 | 31933 ft | 456 kts | 121° |
| 2026-05-07 11:31 | 40.32353 | -3.09809 | 31930 ft | 455 kts | 121° |
| 2026-05-07 11:32 | 40.28083 | -2.98732 | 31937 ft | 453 kts | 121° |
| 2026-05-07 11:33 | 40.25236 | -2.91370 | 31943 ft | 453 kts | 121° |
| 2026-05-07 11:33 | 40.22384 | -2.84011 | 31950 ft | 453 kts | 121° |
| 2026-05-07 11:34 | 40.19523 | -2.76649 | 31947 ft | 454 kts | 122° |
| 2026-05-07 11:34 | 40.16676 | -2.69340 | 31947 ft | 455 kts | 122° |
| 2026-05-07 11:35 | 40.13799 | -2.61973 | 31964 ft | 455 kts | 122° |
| 2026-05-07 11:35 | 40.10912 | -2.54599 | 31962 ft | 456 kts | 122° |
| 2026-05-07 11:36 | 40.08014 | -2.47214 | 31962 ft | 457 kts | 122° |
| 2026-05-07 11:36 | 40.05104 | -2.39816 | 31964 ft | 458 kts | 122° |
| 2026-05-07 11:37 | 40.02207 | -2.32471 | 31958 ft | 458 kts | 122° |
| 2026-05-07 11:37 | 39.99289 | -2.25087 | 31964 ft | 458 kts | 122° |
| 2026-05-07 11:38 | 39.96363 | -2.17703 | 31969 ft | 458 kts | 123° |
| 2026-05-07 11:38 | 39.93440 | -2.10345 | 31978 ft | 457 kts | 123° |
| 2026-05-07 11:39 | 39.90515 | -2.03001 | 31964 ft | 456 kts | 123° |
| 2026-05-07 11:39 | 39.87612 | -1.95728 | 31972 ft | 455 kts | 123° |
| 2026-05-07 11:40 | 39.84690 | -1.88427 | 31980 ft | 454 kts | 123° |
| 2026-05-07 11:40 | 39.81767 | -1.81144 | 31988 ft | 454 kts | 124° |
| 2026-05-07 11:41 | 39.78861 | -1.73918 | 31979 ft | 454 kts | 124° |
| 2026-05-07 11:41 | 39.75933 | -1.66653 | 31986 ft | 453 kts | 124° |
| 2026-05-07 11:42 | 39.73002 | -1.59400 | 31973 ft | 453 kts | 124° |
| 2026-05-07 11:42 | 39.70067 | -1.52156 | 31985 ft | 453 kts | 124° |
| 2026-05-07 11:43 | 39.67146 | -1.44962 | 31967 ft | 454 kts | 124° |
| 2026-05-07 11:43 | 39.64201 | -1.37725 | 31966 ft | 453 kts | 124° |
| 2026-05-07 11:44 | 39.61376 | -1.30391 | 31964 ft | 455 kts | 122° |
| 2026-05-07 11:44 | 39.60039 | -1.26734 | 31947 ft | 441 kts | 122° |
| 2026-05-07 11:44 | 39.58761 | -1.23209 | 31956 ft | 425 kts | 123° |
| 2026-05-07 11:44 | 39.57519 | -1.19805 | 31948 ft | 410 kts | 123° |
| 2026-05-07 11:45 | 39.56311 | -1.16525 | 31950 ft | 398 kts | 124° |
| 2026-05-07 11:45 | 39.55108 | -1.13299 | 31667 ft | 396 kts | 124° |
| 2026-05-07 11:45 | 39.53934 | -1.10168 | 31375 ft | 390 kts | 124° |
| 2026-05-07 11:45 | 39.52751 | -1.07027 | 31031 ft | 386 kts | 124° |
| 2026-05-07 11:46 | 39.51574 | -1.03907 | 30674 ft | 384 kts | 124° |
| 2026-05-07 11:46 | 39.50407 | -1.00817 | 30314 ft | 381 kts | 124° |
| 2026-05-07 11:46 | 39.49249 | -0.97749 | 29954 ft | 379 kts | 124° |
| 2026-05-07 11:46 | 39.48093 | -0.94689 | 29531 ft | 377 kts | 124° |
| 2026-05-07 11:47 | 39.46949 | -0.91663 | 29160 ft | 372 kts | 124° |
| 2026-05-07 11:47 | 39.45818 | -0.88668 | 28791 ft | 369 kts | 123° |
| 2026-05-07 11:47 | 39.44696 | -0.85705 | 28411 ft | 365 kts | 123° |
| 2026-05-07 11:47 | 39.43585 | -0.82770 | 28054 ft | 362 kts | 123° |
| 2026-05-07 11:48 | 39.42494 | -0.79893 | 27679 ft | 359 kts | 123° |
| 2026-05-07 11:48 | 39.41397 | -0.77004 | 27320 ft | 357 kts | 123° |
| 2026-05-07 11:48 | 39.40305 | -0.74130 | 26955 ft | 355 kts | 123° |
| 2026-05-07 11:48 | 39.39220 | -0.71278 | 26599 ft | 353 kts | 123° |
| 2026-05-07 11:49 | 39.38139 | -0.68439 | 26244 ft | 351 kts | 123° |
| 2026-05-07 11:49 | 39.37064 | -0.65616 | 25890 ft | 349 kts | 122° |
| 2026-05-07 11:49 | 39.35994 | -0.62812 | 25545 ft | 347 kts | 122° |
| 2026-05-07 11:49 | 39.34944 | -0.60061 | 25202 ft | 345 kts | 122° |
| 2026-05-07 11:50 | 39.33885 | -0.57291 | 24859 ft | 344 kts | 122° |
| 2026-05-07 11:50 | 39.32827 | -0.54525 | 24512 ft | 342 kts | 122° |
| 2026-05-07 11:50 | 39.31774 | -0.51774 | 24170 ft | 341 kts | 121° |
| 2026-05-07 11:50 | 39.30724 | -0.49033 | 23822 ft | 340 kts | 121° |
| 2026-05-07 11:51 | 39.29675 | -0.46297 | 23447 ft | 340 kts | 121° |
| 2026-05-07 11:51 | 39.28627 | -0.43567 | 23048 ft | 338 kts | 121° |
| 2026-05-07 11:51 | 39.27585 | -0.40853 | 22679 ft | 336 kts | 121° |
| 2026-05-07 11:51 | 39.26549 | -0.38157 | 22325 ft | 334 kts | 120° |
| 2026-05-07 11:52 | 39.25536 | -0.35522 | 21995 ft | 331 kts | 120° |
| 2026-05-07 11:52 | 39.24514 | -0.32866 | 21646 ft | 329 kts | 120° |
| 2026-05-07 11:52 | 39.23498 | -0.30230 | 21305 ft | 327 kts | 120° |
| 2026-05-07 11:52 | 39.22488 | -0.27612 | 20979 ft | 325 kts | 120° |
| 2026-05-07 11:53 | 39.21485 | -0.25015 | 20649 ft | 323 kts | 120° |
| 2026-05-07 11:53 | 39.20486 | -0.22430 | 20321 ft | 321 kts | 120° |
| 2026-05-07 11:53 | 39.19493 | -0.19863 | 19992 ft | 319 kts | 120° |
| 2026-05-07 11:53 | 39.18504 | -0.17307 | 19671 ft | 318 kts | 120° |
| 2026-05-07 11:54 | 39.17533 | -0.14803 | 19350 ft | 316 kts | 120° |
| 2026-05-07 11:54 | 39.16554 | -0.12276 | 19028 ft | 315 kts | 120° |
| 2026-05-07 11:54 | 39.15577 | -0.09759 | 18707 ft | 313 kts | 120° |
| 2026-05-07 11:54 | 39.14605 | -0.07257 | 18392 ft | 312 kts | 120° |
| 2026-05-07 11:55 | 39.13635 | -0.04762 | 18038 ft | 311 kts | 119° |
| 2026-05-07 11:55 | 39.12668 | -0.02277 | 17685 ft | 309 kts | 119° |
| 2026-05-07 11:55 | 39.11705 | 0.00197 | 17347 ft | 308 kts | 119° |
| 2026-05-07 11:55 | 39.10750 | 0.02648 | 17025 ft | 306 kts | 119° |
| 2026-05-07 11:56 | 39.09813 | 0.05053 | 16698 ft | 304 kts | 119° |
| 2026-05-07 11:56 | 39.08866 | 0.07478 | 16385 ft | 302 kts | 119° |
| 2026-05-07 11:56 | 39.07925 | 0.09886 | 16071 ft | 300 kts | 119° |
| 2026-05-07 11:56 | 39.06988 | 0.12284 | 15760 ft | 299 kts | 118° |
| 2026-05-07 11:57 | 39.06056 | 0.14666 | 15457 ft | 297 kts | 118° |
| 2026-05-07 11:57 | 39.05130 | 0.17033 | 15149 ft | 296 kts | 118° |
| 2026-05-07 11:57 | 39.04207 | 0.19386 | 14840 ft | 294 kts | 118° |
| 2026-05-07 11:57 | 39.03289 | 0.21729 | 14534 ft | 293 kts | 118° |
| 2026-05-07 11:58 | 39.02372 | 0.24065 | 14234 ft | 291 kts | 118° |
| 2026-05-07 11:58 | 39.01462 | 0.26383 | 13947 ft | 290 kts | 118° |
| 2026-05-07 11:58 | 39.00568 | 0.28657 | 13651 ft | 288 kts | 118° |
| 2026-05-07 11:58 | 38.99665 | 0.30953 | 13327 ft | 287 kts | 118° |
| 2026-05-07 11:59 | 38.98769 | 0.33228 | 13010 ft | 285 kts | 118° |
| 2026-05-07 11:59 | 38.97876 | 0.35495 | 12708 ft | 283 kts | 118° |
| 2026-05-07 11:59 | 38.96990 | 0.37745 | 12403 ft | 281 kts | 118° |
| 2026-05-07 11:59 | 38.96108 | 0.39980 | 12100 ft | 279 kts | 118° |
| 2026-05-07 12:00 | 38.95231 | 0.42201 | 11809 ft | 278 kts | 118° |
| 2026-05-07 12:00 | 38.94360 | 0.44407 | 11515 ft | 276 kts | 118° |
| 2026-05-07 12:00 | 38.93504 | 0.46571 | 11225 ft | 275 kts | 118° |
| 2026-05-07 12:00 | 38.92641 | 0.48752 | 10933 ft | 273 kts | 118° |
| 2026-05-07 12:01 | 38.91780 | 0.50927 | 10634 ft | 272 kts | 117° |
| 2026-05-07 12:01 | 38.90925 | 0.53085 | 10348 ft | 271 kts | 117° |
| 2026-05-07 12:01 | 38.90075 | 0.55228 | 10156 ft | 265 kts | 117° |
| 2026-05-07 12:01 | 38.89262 | 0.57277 | 10023 ft | 250 kts | 117° |
| 2026-05-07 12:02 | 38.88494 | 0.59212 | 9809 ft | 237 kts | 117° |
| 2026-05-07 12:02 | 38.87755 | 0.61070 | 9545 ft | 229 kts | 117° |
| 2026-05-07 12:02 | 38.87059 | 0.62821 | 9301 ft | 217 kts | 117° |
| 2026-05-07 12:02 | 38.86388 | 0.64508 | 9104 ft | 208 kts | 117° |
| 2026-05-07 12:03 | 38.85737 | 0.66141 | 8877 ft | 204 kts | 117° |
| 2026-05-07 12:03 | 38.85099 | 0.67745 | 8672 ft | 200 kts | 116° |
| 2026-05-07 12:03 | 38.84468 | 0.69326 | 8467 ft | 199 kts | 116° |
| 2026-05-07 12:03 | 38.83835 | 0.70913 | 8270 ft | 201 kts | 116° |
| 2026-05-07 12:04 | 38.83197 | 0.72513 | 8055 ft | 202 kts | 116° |
| 2026-05-07 12:04 | 38.82553 | 0.74128 | 7850 ft | 205 kts | 116° |
| 2026-05-07 12:04 | 38.81899 | 0.75767 | 7638 ft | 207 kts | 116° |
| 2026-05-07 12:04 | 38.81244 | 0.77407 | 7419 ft | 207 kts | 116° |
| 2026-05-07 12:05 | 38.80597 | 0.79027 | 7189 ft | 207 kts | 116° |
| 2026-05-07 12:05 | 38.79941 | 0.80665 | 6979 ft | 206 kts | 116° |
| 2026-05-07 12:05 | 38.79289 | 0.82296 | 6763 ft | 205 kts | 115° |
| 2026-05-07 12:05 | 38.78640 | 0.83918 | 6556 ft | 204 kts | 115° |
| 2026-05-07 12:06 | 38.77996 | 0.85525 | 6350 ft | 204 kts | 115° |
| 2026-05-07 12:06 | 38.77348 | 0.87143 | 6140 ft | 203 kts | 115° |
| 2026-05-07 12:06 | 38.76709 | 0.88736 | 5961 ft | 199 kts | 115° |
| 2026-05-07 12:06 | 38.76082 | 0.90300 | 5766 ft | 194 kts | 115° |
| 2026-05-07 12:07 | 38.75481 | 0.91796 | 5704 ft | 188 kts | 115° |
| 2026-05-07 12:07 | 38.74880 | 0.93295 | 5624 ft | 192 kts | 115° |
| 2026-05-07 12:07 | 38.74266 | 0.94824 | 5557 ft | 194 kts | 115° |
| 2026-05-07 12:07 | 38.73644 | 0.96373 | 5487 ft | 197 kts | 115° |
| 2026-05-07 12:08 | 38.72995 | 0.97989 | 5439 ft | 214 kts | 115° |
| 2026-05-07 12:08 | 38.72464 | 0.99788 | 5320 ft | 219 kts | 92° |
| 2026-05-07 12:08 | 38.72743 | 1.01678 | 5262 ft | 215 kts | 69° |
| 2026-05-07 12:08 | 38.73368 | 1.03428 | 5026 ft | 214 kts | 64° |
| 2026-05-07 12:09 | 38.74042 | 1.05086 | 4806 ft | 205 kts | 63° |
| 2026-05-07 12:09 | 38.74695 | 1.06668 | 4567 ft | 196 kts | 63° |
| 2026-05-07 12:09 | 38.75316 | 1.08176 | 4348 ft | 187 kts | 63° |
| 2026-05-07 12:09 | 38.75905 | 1.09611 | 4135 ft | 183 kts | 63° |
| 2026-05-07 12:10 | 38.76492 | 1.11044 | 3938 ft | 180 kts | 63° |
| 2026-05-07 12:10 | 38.77072 | 1.12462 | 3750 ft | 180 kts | 63° |
| 2026-05-07 12:10 | 38.77654 | 1.13881 | 3549 ft | 180 kts | 63° |
| 2026-05-07 12:10 | 38.78232 | 1.15291 | 3423 ft | 176 kts | 63° |
| 2026-05-07 12:11 | 38.78804 | 1.16686 | 3304 ft | 182 kts | 63° |
| 2026-05-07 12:11 | 38.79397 | 1.18133 | 3086 ft | 184 kts | 63° |
| 2026-05-07 12:11 | 38.79984 | 1.19564 | 2821 ft | 177 kts | 63° |
| 2026-05-07 12:11 | 38.80534 | 1.20901 | 2602 ft | 165 kts | 63° |
| 2026-05-07 12:12 | 38.81058 | 1.22177 | 2422 ft | 158 kts | 64° |
| 2026-05-07 12:12 | 38.81556 | 1.23392 | 2192 ft | 150 kts | 63° |
| 2026-05-07 12:12 | 38.82030 | 1.24546 | 1991 ft | 143 kts | 64° |
| 2026-05-07 12:12 | 38.82482 | 1.25648 | 1792 ft | 137 kts | 63° |
| 2026-05-07 12:13 | 38.82919 | 1.26710 | 1641 ft | 137 kts | 63° |
| 2026-05-07 12:13 | 38.83372 | 1.27814 | 1457 ft | 142 kts | 62° |
| 2026-05-07 12:13 | 38.83839 | 1.28947 | 1243 ft | 145 kts | 63° |
| 2026-05-07 12:13 | 38.84316 | 1.30084 | 1028 ft | 143 kts | 62° |
| 2026-05-07 12:14 | 38.84780 | 1.31186 | 837 ft | 144 kts | 64° |
| 2026-05-07 12:14 | 38.85243 | 1.32339 | 672 ft | 145 kts | 63° |
| 2026-05-07 12:14 | 38.85702 | 1.33459 | 474 ft | 140 kts | 63° |
| 2026-05-07 12:14 | 38.86161 | 1.34570 | 311 ft | 140 kts | 63° |
| 2026-05-07 12:15 | 38.86599 | 1.35646 | 95 ft | 134 kts | 64° |
| 2026-05-07 12:15 | 38.87029 | 1.36696 | 6 ft | 127 kts | 60° |
| 2026-05-07 12:15 | 38.87301 | 1.37341 | 5 ft | 37 kts | 55° |
| 2026-05-07 12:15 | 38.87460 | 1.37505 | 8 ft | 11 kts | 32° |
| 2026-05-07 12:16 | 38.87521 | 1.37554 | 7 ft | 10 kts | 32° |
| 2026-05-07 12:16 | 38.87586 | 1.37558 | 7 ft | 10 kts | 327° |
| 2026-05-07 12:16 | 38.87652 | 1.37509 | 8 ft | 13 kts | 332° |
| 2026-05-07 12:16 | 38.87693 | 1.37422 | 7 ft | 13 kts | 252° |
| 2026-05-07 12:17 | 38.87652 | 1.37322 | 7 ft | 12 kts | 241° |
| 2026-05-07 12:17 | 38.87612 | 1.37225 | 7 ft | 12 kts | 243° |
| 2026-05-07 12:17 | 38.87593 | 1.37176 | 9 ft | 1 kts | 242° |
| 2026-05-07 12:17 | 38.87589 | 1.37167 | 8 ft | 2 kts | 242° |
| 2026-05-07 12:18 | 38.87580 | 1.37144 | 7 ft | 4 kts | 242° |
| 2026-05-07 12:18 | 38.87568 | 1.37110 | 7 ft | 5 kts | 264° |
| 2026-05-07 12:18 | 38.87590 | 1.37081 | 7 ft | 5 kts | 327° |
| 2026-05-07 12:18 | 38.87615 | 1.37063 | 7 ft | 0 kts | 332° |